Terminal Aerodrome Forecast
Issued by NWS

Home | Current Version | Previous Version | Graphics & Text | Print | Product List | Glossary On
Versions: 1 2 3 4 5 6 7 8 9 10 11 12 13 14
000
FTUS43 KICT 180721 AAA
TAFRSL
TAF AMD
KRSL 180721Z 1807/1906 14013KT P6SM SCT100 OVC150
     FM181000 14008KT P6SM BKN250
     FM181300 21010KT P6SM SCT250
     FM181800 36008KT P6SM SCT250
     FM190000 04005KT P6SM SCT250=

USA.gov is the U.S. government's official web portal to all federal, state and local government web resources and services.